Maersk Sentosa — WSEP — position and weather

sailwx.info

Track history (hours):
 
Tides and Currents Weather Stations Pressure Air Temp Water Temp Dewpoint Dewpoint Depression Visibility Wind Speed Wind Dir Waves Ship Positions

Maersk Sentosa

Owner: Maersk Line, Limited, Norfolk, VA. More information available from US FCC via Universal Licensing System and Coast Guard Vessel Documentation Center.

Last reported at 2018-Jul-17 00:00 UTC. Time now 2018-Jul-17 17:04 UTC.
Position N 43°24' W 051°18'.

Length 319 m; draft 11.2 m.

Type: Ship (hazmat cat B). MMSI: 369246000.

Wind from 170 at 20 knots

Barometer 1023.8 mb
Air temperature 19.0 ° C
Visibility: greater than 5.4 NM
Dewpoint 17.4 ° C
Water temperature 17.6 ° C

Date/timePositionNaut miles runAvg speedWind from/ knotsBaromVisibWave heightAir tempDewpointWater temp
2018-Jul-17 00:00N 43°24' W 051°18'11419.0 170 / 201023.8 5.4 19.017.417.6
2018-Jul-16 18:00N 42°24' W 053°30'11619.3 160 / 261022.310.8 25.020.421.2
2018-Jul-16 12:00N 41°30' W 055°48'33318.5 160 / 341019.710.8 25.020.423.2
2018-Jul-15 18:00N 39°54' W 062°48'8316.6 120 / 201013.927.0 27.019.326.0
2018-Jul-15 13:00N 39°54' W 064°36'2827.6 130 / 81013.510.8 24.019.424.6
2018-Jul-15 12:00N 39°54' W 065°12'8313.8 090 / 101013.610.8 23.021.525.0
2018-Jul-15 06:00N 39°54' W 067°00'8720.7 340 / 201015.0 0.3 19.015.620.8
2018-Jul-15 01:46N 40°05' W 068°53'717.6
2018-Jul-15 01:23N 40°05' W 069°02'717.8
2018-Jul-15 01:00N 40°06' W 069°11'10615.2
2018-Jul-14 18:00N 40°12' W 071°30'10722.1 170 / 61020.127.0 23.012.622.5
2018-Jul-14 13:10N 40°27' W 073°48'2 9.7
2018-Jul-14 12:58N 40°27' W 073°51'716.0
2018-Jul-14 12:30N 40°31' W 073°59'714.2
2018-Jul-14 12:01N 40°38' W 074°03'3 6.3
2018-Jul-14 11:30N 40°39' W 074°07'2 3.1
2018-Jul-14 11:00N 40°40' W 074°08'1 2.2
2018-Jul-14 10:31N 40°41' W 074°09'0 0.7
2018-Jul-14 10:00N 40°41' W 074°09'0 0.0
2018-Jul-14 09:30N 40°41' W 074°09'0 0.0
2018-Jul-14 09:00N 40°41' W 074°09'0 0.0
2018-Jul-14 08:30N 40°41' W 074°09'0 0.0
2018-Jul-14 08:00N 40°41' W 074°09'0 0.0
2018-Jul-14 07:30N 40°41' W 074°09'0 0.0
2018-Jul-14 07:00N 40°41' W 074°09'0 0.0
2018-Jul-14 06:30N 40°41' W 074°09'0 0.0
2018-Jul-14 06:00N 40°41' W 074°09'0 0.0
2018-Jul-14 05:30N 40°41' W 074°09'0 0.0
2018-Jul-14 05:00N 40°41' W 074°09'0 0.0
2018-Jul-14 04:30N 40°41' W 074°09'0 0.0
2018-Jul-14 04:00N 40°41' W 074°09'0 0.0
2018-Jul-14 03:30N 40°41' W 074°09'0 0.0
2018-Jul-14 03:00N 40°41' W 074°09'0 0.0
2018-Jul-14 02:30N 40°41' W 074°09'0 0.0
2018-Jul-14 02:00N 40°41' W 074°09'0 0.0
2018-Jul-14 01:21N 40°41' W 074°09'0 0.0
2018-Jul-14 01:00N 40°41' W 074°09'0 0.0
2018-Jul-14 00:30N 40°41' W 074°09'0 0.0
2018-Jul-14 00:00N 40°41' W 074°09'0 0.0
2018-Jul-13 23:27N 40°41' W 074°09'0 0.0
2018-Jul-13 23:00N 40°41' W 074°09'0 0.0
2018-Jul-13 22:30N 40°41' W 074°09'0 0.0
2018-Jul-13 22:00N 40°41' W 074°09'0 0.0
2018-Jul-13 21:27N 40°41' W 074°09'0 0.0
2018-Jul-13 21:00N 40°41' W 074°09'0 0.0
2018-Jul-13 20:27N 40°41' W 074°09'0 0.0
2018-Jul-13 20:00N 40°41' W 074°09'0 0.0
2018-Jul-13 19:30N 40°41' W 074°09'0 0.0
2018-Jul-13 19:00N 40°41' W 074°09'0 0.0
2018-Jul-13 18:30N 40°41' W 074°09'0 0.0
2018-Jul-13 18:00N 40°41' W 074°09'0 0.0
2018-Jul-13 17:30N 40°41' W 074°09'0 0.0
2018-Jul-13 17:00N 40°41' W 074°09'0 0.0
2018-Jul-13 16:21N 40°41' W 074°09'0 0.0
2018-Jul-13 16:00N 40°41' W 074°09'0 0.0
2018-Jul-13 15:30N 40°41' W 074°09'0 0.0
2018-Jul-13 14:57N 40°41' W 074°09'0 0.0
2018-Jul-13 14:15N 40°41' W 074°09'0 0.0
2018-Jul-13 13:30N 40°41' W 074°09'0 0.0
2018-Jul-13 13:00N 40°41' W 074°09'0 0.0
2018-Jul-13 12:30N 40°41' W 074°09'0 0.0
2018-Jul-13 12:00N 40°41' W 074°09'0 0.0
2018-Jul-13 11:30N 40°41' W 074°09'0 0.6
2018-Jul-13 11:00N 40°41' W 074°09'2 4.8
2018-Jul-13 10:30N 40°39' W 074°09'4 7.1
2018-Jul-13 10:00N 40°39' W 074°04'4 7.6
2018-Jul-13 09:30N 40°36' W 074°02'5 9.0
2018-Jul-13 09:00N 40°31' W 073°60'713.5
2018-Jul-13 08:30N 40°28' W 073°52'4 8.9
2018-Jul-13 08:00N 40°26' W 073°47'714.4
2018-Jul-13 07:30N 40°19' W 073°46'815.1
2018-Jul-13 07:01N 40°12' W 073°46'1122.0
2018-Jul-13 06:30N 40°01' W 073°44'1122.0
2018-Jul-13 06:00N 39°50' W 073°43'1121.9
2018-Jul-13 05:31N 39°39' W 073°44'1122.0
2018-Jul-13 05:00N 39°28' W 073°46'1122.0
2018-Jul-13 04:30N 39°17' W 073°48'1122.0
2018-Jul-13 04:00N 39°06' W 073°50'1122.1
2018-Jul-13 03:30N 38°55' W 073°53'1121.8
2018-Jul-13 03:00N 38°45' W 073°55'1121.7
2018-Jul-13 02:30N 38°34' W 073°57'1121.9
2018-Jul-13 02:01N 38°23' W 073°59'1121.9
2018-Jul-13 01:31N 38°12' W 074°02'1121.5
2018-Jul-13 01:01N 38°02' W 074°04'1121.8
2018-Jul-13 00:30N 37°51' W 074°07'1121.7
2018-Jul-13 00:00N 37°40' W 074°09'11714.5
2018-Jul-13 00:00N 37°30' W 074°06'3 7.0 070 / 201020.6 5.4 24.020.225.9
2018-Jul-12 23:30N 37°30' W 074°10'1121.5
2018-Jul-12 23:01N 37°19' W 074°12'1121.2
2018-Jul-12 22:30N 37°08' W 074°13'7721.8
2018-Jul-12 19:00N 35°54' W 074°36'16924.2 070 / 121018.710.8 26.019.926.0
2018-Jul-12 12:00N 33°30' W 076°24'12020.0 230 / 301018.110.8 27.022.629.8
2018-Jul-12 06:00N 32°18' W 078°18'8142.8 260 / 221017.527.0 27.021.029.0
2018-Jul-12 05:56N 32°19' W 078°28'1023.9
2018-Jul-12 05:31N 32°14' W 078°38'1323.9
2018-Jul-12 04:59N 32°06' W 078°50'1122.7
2018-Jul-12 04:30N 32°01' W 079°01'1122.2
2018-Jul-12 04:00N 31°59' W 079°14'1020.5
2018-Jul-12 03:31N 31°58' W 079°26'1020.2
2018-Jul-12 03:00N 31°58' W 079°38'1020.7
2018-Jul-12 02:30N 31°57' W 079°50'1121.0
2018-Jul-12 02:00N 31°57' W 080°02'1121.2
2018-Jul-12 01:30N 31°56' W 080°15'1121.1
2018-Jul-12 00:58N 31°55' W 080°28'1020.0
2018-Jul-12 00:29N 31°57' W 080°39'611.5
2018-Jul-12 00:00N 31°59' W 080°45'714.2
2018-Jul-11 23:31N 32°02' W 080°53'5 9.1
2018-Jul-11 23:00N 32°04' W 080°58'4 8.3
2018-Jul-11 22:31N 32°05' W 081°02'3 6.8
2018-Jul-11 22:00N 32°06' W 081°06'2 4.4
2018-Jul-11 21:30N 32°07' W 081°08'0 0.0
2018-Jul-11 21:00N 32°07' W 081°08'0 0.0
2018-Jul-11 20:30N 32°07' W 081°08'0 0.0
2018-Jul-11 20:00N 32°07' W 081°08'0 0.0
2018-Jul-11 19:30N 32°07' W 081°08'0 0.0
2018-Jul-11 19:00N 32°07' W 081°08'0 0.0
2018-Jul-11 18:30N 32°07' W 081°08'0 0.0
2018-Jul-11 18:00N 32°07' W 081°08'0 0.0
2018-Jul-11 17:24N 32°07' W 081°08'0 0.0
2018-Jul-11 17:00N 32°07' W 081°08'0 0.0
2018-Jul-11 16:24N 32°07' W 081°08'0 0.0
2018-Jul-11 16:00N 32°07' W 081°08'0 0.0
2018-Jul-11 15:30N 32°07' W 081°08'0 0.0
2018-Jul-11 15:00N 32°07' W 081°08'0 0.0
2018-Jul-11 14:24N 32°07' W 081°08'0 0.0
2018-Jul-11 13:48N 32°07' W 081°08'0 0.0
2018-Jul-11 13:30N 32°07' W 081°08'0 0.0
2018-Jul-11 13:00N 32°07' W 081°08'0 0.0
2018-Jul-11 12:30N 32°07' W 081°08'0 0.0
2018-Jul-11 12:00N 32°07' W 081°08'0 0.0
2018-Jul-11 11:30N 32°07' W 081°08'0 0.0
2018-Jul-11 11:00N 32°07' W 081°08'0 0.0
2018-Jul-11 10:19N 32°07' W 081°08'0 1.2
2018-Jul-11 10:00N 32°08' W 081°08'2 3.3
2018-Jul-11 09:30N 32°06' W 081°07'4 6.7
2018-Jul-11 08:59N 32°05' W 081°03'3 7.0
2018-Jul-11 08:30N 32°06' W 080°60'5 9.9
2018-Jul-11 08:00N 32°02' W 080°55'713.0
2018-Jul-11 07:30N 32°00' W 080°48'815.7
2018-Jul-11 07:01N 31°57' W 080°40'815.2
2018-Jul-11 06:30N 31°57' W 080°31'815.6
2018-Jul-11 05:58N 31°59' W 080°21'11519.2
2018-Jul-11 00:00N 32°48' W 078°18'11218.6 290 / 51014.710.8 28.016.928.3
2018-Jul-10 18:00N 34°00' W 076°36'5620.1 330 / 261015.210.8 27.011.428.7
2018-Jul-10 15:12N 34°40' W 075°48'626.3
2018-Jul-10 15:00N 34°42' W 075°42'281.3 010 / 251016.110.8 24.019.428.2
2018-Jul-10 14:58N 34°43' W 075°44'919.3
2018-Jul-10 14:31N 34°49' W 075°37'1122.2
2018-Jul-10 14:01N 34°56' W 075°27'1323.2
2018-Jul-10 13:26N 35°06' W 075°14'2021.9
2018-Jul-10 12:30N 35°24' W 075°04'713.5
2018-Jul-10 12:00N 35°30' W 075°00'3126.5 360 / 191015.910.8 23.019.924.9
2018-Jul-10 10:48N 36°01' W 074°53'2421.6
2018-Jul-10 09:42N 36°20' W 075°11'421.6
2018-Jul-10 09:30N 36°23' W 075°14'1521.8
2018-Jul-10 08:49N 36°36' W 075°24'821.2
2018-Jul-10 08:28N 36°42' W 075°29'4 9.4
2018-Jul-10 08:00N 36°45' W 075°33'510.8
2018-Jul-10 07:30N 36°47' W 075°39'917.2
2018-Jul-10 07:00N 36°50' W 075°49'1019.5
2018-Jul-10 06:30N 36°56' W 075°59'713.5
2018-Jul-10 06:00N 36°58' W 076°07'916.9
2018-Jul-10 05:28N 36°60' W 076°18'510.2
2018-Jul-10 04:59N 36°55' W 076°20'4 7.6
2018-Jul-10 04:30N 36°52' W 076°19'0 0.9
2018-Jul-10 03:59N 36°51' W 076°20'0 0.0
2018-Jul-10 03:23N 36°51' W 076°20'0 0.0
2018-Jul-10 02:47N 36°51' W 076°20'0 0.0
2018-Jul-10 02:17N 36°51' W 076°20'0 0.0
2018-Jul-10 01:59N 36°51' W 076°20'0 0.0
2018-Jul-10 01:29N 36°51' W 076°20'0 0.0
2018-Jul-10 00:59N 36°51' W 076°20'0 0.0
2018-Jul-10 00:26N 36°51' W 076°20'0 0.0
2018-Jul-09 23:50N 36°51' W 076°20'0 0.0
2018-Jul-09 23:29N 36°51' W 076°20'0 0.0
2018-Jul-09 22:59N 36°51' W 076°20'0 0.0
2018-Jul-09 20:47N 36°51' W 076°20'0 0.0
2018-Jul-09 19:41N 36°51' W 076°20'0 0.0
2018-Jul-09 19:29N 36°51' W 076°20'0 0.0
2018-Jul-09 18:59N 36°51' W 076°20'0 0.0
2018-Jul-09 18:29N 36°51' W 076°20'0 0.0
2018-Jul-09 17:59N 36°51' W 076°20'0 0.0
2018-Jul-09 17:26N 36°51' W 076°20'0 0.0
2018-Jul-09 16:50N 36°51' W 076°20'0 0.0
2018-Jul-09 16:26N 36°51' W 076°20'0 0.0
2018-Jul-09 15:59N 36°51' W 076°20'0 0.0
2018-Jul-09 15:29N 36°51' W 076°20'0 0.0
2018-Jul-09 14:32N 36°51' W 076°20'0 0.0
2018-Jul-09 14:29N 36°51' W 076°20'0 0.0
2018-Jul-09 13:59N 36°51' W 076°20'0 0.0
2018-Jul-09 13:23N 36°51' W 076°20'0 0.0
2018-Jul-09 12:59N 36°51' W 076°20'0 0.0
2018-Jul-09 12:29N 36°51' W 076°20'0 0.0
2018-Jul-09 11:59N 36°51' W 076°20'0 0.0
2018-Jul-09 11:29N 36°51' W 076°20'0 0.0
2018-Jul-09 10:59N 36°51' W 076°20'0 0.0
2018-Jul-09 10:29N 36°51' W 076°20'0 0.0
2018-Jul-09 09:59N 36°51' W 076°20'0 0.0
2018-Jul-09 09:29N 36°51' W 076°20'0 0.0
2018-Jul-09 08:59N 36°51' W 076°20'0 0.0
2018-Jul-09 08:29N 36°51' W 076°20'0 0.0
2018-Jul-09 08:00N 36°51' W 076°20'0 0.9
2018-Jul-09 07:30N 36°52' W 076°19'3 6.4
2018-Jul-09 07:00N 36°55' W 076°20'1110.1
2018-Jul-09 05:54N 36°59' W 076°07'6 8.4
2018-Jul-09 05:11N 36°58' W 075°60'718.4
2018-Jul-09 04:50N 37°03' W 076°05'618.7
2018-Jul-09 04:30N 37°09' W 076°09'1418.1
2018-Jul-09 03:44N 37°22' W 076°05'417.8
2018-Jul-09 03:30N 37°26' W 076°05'817.0
2018-Jul-09 03:00N 37°34' W 076°03'917.3
2018-Jul-09 02:30N 37°41' W 076°10'919.0
2018-Jul-09 02:00N 37°51' W 076°10'1018.3
2018-Jul-09 01:28N 38°00' W 076°12'919.6
2018-Jul-09 01:00N 38°09' W 076°14'3619.4
2018-Jul-08 23:08N 38°44' W 076°26'320.2
2018-Jul-08 23:00N 38°47' W 076°25'1020.5
2018-Jul-08 22:30N 38°57' W 076°23'816.2
2018-Jul-08 22:01N 39°05' W 076°24'612.9
2018-Jul-08 21:30N 39°11' W 076°27'5 9.6
2018-Jul-08 21:00N 39°13' W 076°32'2 3.0
2018-Jul-08 20:27N 39°15' W 076°33'0 0.5
2018-Jul-08 20:00N 39°15' W 076°33'0 0.0
2018-Jul-08 19:30N 39°15' W 076°33'0 0.0
2018-Jul-08 19:00N 39°15' W 076°33'0 0.0
2018-Jul-08 18:30N 39°15' W 076°33'0 0.0
2018-Jul-08 18:00N 39°15' W 076°33'0 0.0
2018-Jul-08 17:30N 39°15' W 076°33'0 0.0
2018-Jul-08 17:00N 39°15' W 076°33'0 0.0
2018-Jul-08 16:30N 39°15' W 076°33'0 0.0
2018-Jul-08 16:00N 39°15' W 076°33'0 0.0
2018-Jul-08 15:30N 39°15' W 076°33'0 0.0
2018-Jul-08 15:00N 39°15' W 076°33'0 0.0
2018-Jul-08 14:30N 39°15' W 076°33'0 0.0
2018-Jul-08 14:00N 39°15' W 076°33'0 0.0
2018-Jul-08 13:30N 39°15' W 076°33'0 0.0
2018-Jul-08 13:00N 39°15' W 076°33'0 0.0
2018-Jul-08 12:30N 39°15' W 076°33'0 0.0
2018-Jul-08 12:00N 39°15' W 076°33'0 0.0
2018-Jul-08 11:30N 39°15' W 076°33'0 0.0
2018-Jul-08 11:00N 39°15' W 076°33'0 0.0
2018-Jul-08 10:30N 39°15' W 076°33'0 0.0
2018-Jul-08 10:00N 39°15' W 076°33'0 0.0
2018-Jul-08 09:30N 39°15' W 076°33'0 0.0
2018-Jul-08 09:00N 39°15' W 076°33'0 0.0
2018-Jul-08 08:30N 39°15' W 076°33'0 0.0
2018-Jul-08 08:00N 39°15' W 076°33'0 0.0
2018-Jul-08 07:30N 39°15' W 076°33'0 0.0
2018-Jul-08 07:00N 39°15' W 076°33'0 0.0
2018-Jul-08 06:30N 39°15' W 076°33'0 0.0
2018-Jul-08 06:00N 39°15' W 076°33'0 0.0
2018-Jul-08 05:30N 39°15' W 076°33'0 0.0
2018-Jul-08 05:00N 39°15' W 076°33'0 0.0
2018-Jul-08 04:30N 39°15' W 076°33'0 0.0
2018-Jul-08 04:00N 39°15' W 076°33'0 0.0
2018-Jul-08 03:30N 39°15' W 076°33'0 0.0
2018-Jul-08 03:00N 39°15' W 076°33'0 0.0
2018-Jul-08 02:30N 39°15' W 076°33'0 0.0
2018-Jul-08 02:00N 39°15' W 076°33'0 0.0
2018-Jul-08 01:30N 39°15' W 076°33'0 0.0
2018-Jul-08 01:00N 39°15' W 076°33'0 0.0
2018-Jul-08 00:30N 39°15' W 076°33'0 0.0
2018-Jul-07 23:57N 39°15' W 076°33'0 0.0
2018-Jul-07 23:27N 39°15' W 076°33'0 0.0
2018-Jul-07 23:00N 39°15' W 076°33'0 0.0
2018-Jul-07 22:30N 39°15' W 076°33'0 0.0
2018-Jul-07 21:39N 39°15' W 076°33'0 0.0
2018-Jul-07 21:30N 39°15' W 076°33'0 0.0
2018-Jul-07 20:57N 39°15' W 076°33'0 0.0
2018-Jul-07 20:27N 39°15' W 076°33'0 0.0
2018-Jul-07 20:00N 39°15' W 076°33'0 0.0
2018-Jul-07 19:30N 39°15' W 076°33'0 0.0
2018-Jul-07 19:00N 39°15' W 076°33'0 0.0
2018-Jul-07 18:30N 39°15' W 076°33'0 0.0
2018-Jul-07 18:00N 39°15' W 076°33'0 0.0
2018-Jul-07 17:30N 39°15' W 076°33'0 0.0
2018-Jul-07 17:00N 39°15' W 076°33'0 0.0
2018-Jul-07 16:30N 39°15' W 076°33'0 0.0
2018-Jul-07 16:00N 39°15' W 076°33'0 0.0
2018-Jul-07 15:30N 39°15' W 076°33'0 0.0
2018-Jul-07 15:00N 39°15' W 076°33'0 0.0
2018-Jul-07 14:30N 39°15' W 076°33'0 0.0
2018-Jul-07 14:00N 39°15' W 076°33'0 0.0
2018-Jul-07 13:30N 39°15' W 076°33'0 0.0
2018-Jul-07 13:00N 39°15' W 076°33'0 0.0
2018-Jul-07 12:30N 39°15' W 076°33'0 0.0
2018-Jul-07 12:00N 39°15' W 076°33'0 0.0
2018-Jul-07 11:30N 39°15' W 076°33'0 0.0
2018-Jul-07 11:00N 39°15' W 076°33'0 0.0
2018-Jul-07 10:30N 39°15' W 076°33'0 0.0
2018-Jul-07 10:00N 39°15' W 076°33'0 0.0
2018-Jul-07 09:30N 39°15' W 076°33'0 0.0
2018-Jul-07 09:00N 39°15' W 076°33'0 0.0
2018-Jul-07 08:30N 39°15' W 076°33'0 0.0
2018-Jul-07 08:00N 39°15' W 076°33'0 0.0
2018-Jul-07 07:30N 39°15' W 076°33'0 0.0
2018-Jul-07 07:00N 39°15' W 076°33'0 0.0
2018-Jul-07 06:30N 39°15' W 076°33'0 0.0
2018-Jul-07 06:00N 39°15' W 076°33'0 0.0
2018-Jul-07 05:30N 39°15' W 076°33'0 0.0
2018-Jul-07 05:00N 39°15' W 076°33'0 0.0
2018-Jul-07 04:30N 39°15' W 076°33'0 0.0
2018-Jul-07 04:00N 39°15' W 076°33'0 0.0
2018-Jul-07 03:30N 39°15' W 076°33'0 0.0
2018-Jul-07 03:00N 39°15' W 076°33'0 0.0
2018-Jul-07 02:30N 39°15' W 076°33'0 0.0
2018-Jul-07 02:00N 39°15' W 076°33'0 0.0
2018-Jul-07 01:30N 39°15' W 076°33'0 0.0
2018-Jul-07 01:00N 39°15' W 076°33'0 0.0
2018-Jul-07 00:30N 39°15' W 076°33'0 0.0
2018-Jul-07 00:00N 39°15' W 076°33'  
Track history (hours):
 
Tides and Currents Weather Stations Pressure Air Temp Water Temp Dewpoint Dewpoint Depression Visibility Wind Speed Wind Dir Waves Ship Positions

Maersk Sentosa

Owner: Maersk Line, Limited, Norfolk, VA. More information available from US FCC via Universal Licensing System and Coast Guard Vessel Documentation Center.

Last reported at 2018-Jul-17 00:00 UTC. Time now 2018-Jul-17 17:04 UTC.
Position N 43°24' W 051°18'.

Length 319 m; draft 11.2 m.

Type: Ship (hazmat cat B). MMSI: 369246000.

Wind from 170 at 20 knots

Barometer 1023.8 mb
Air temperature 19.0 ° C
Visibility: greater than 5.4 NM
Dewpoint 17.4 ° C
Water temperature 17.6 ° C

Date/timePositionNaut miles runAvg speedWind from/ knotsBaromVisibWave heightAir tempDewpointWater temp
2018-Jul-17 00:00N 43°24' W 051°18'11419.0 170 / 201023.8 5.4 19.017.417.6
2018-Jul-16 18:00N 42°24' W 053°30'11619.3 160 / 261022.310.8 25.020.421.2
2018-Jul-16 12:00N 41°30' W 055°48'33318.5 160 / 341019.710.8 25.020.423.2
2018-Jul-15 18:00N 39°54' W 062°48'8316.6 120 / 201013.927.0 27.019.326.0
2018-Jul-15 13:00N 39°54' W 064°36'2827.6 130 / 81013.510.8 24.019.424.6
2018-Jul-15 12:00N 39°54' W 065°12'8313.8 090 / 101013.610.8 23.021.525.0
2018-Jul-15 06:00N 39°54' W 067°00'8720.7 340 / 201015.0 0.3 19.015.620.8
2018-Jul-15 01:46N 40°05' W 068°53'717.6
2018-Jul-15 01:23N 40°05' W 069°02'717.8
2018-Jul-15 01:00N 40°06' W 069°11'10615.2
2018-Jul-14 18:00N 40°12' W 071°30'10722.1 170 / 61020.127.0 23.012.622.5
2018-Jul-14 13:10N 40°27' W 073°48'2 9.7
2018-Jul-14 12:58N 40°27' W 073°51'716.0
2018-Jul-14 12:30N 40°31' W 073°59'714.2
2018-Jul-14 12:01N 40°38' W 074°03'3 6.3
2018-Jul-14 11:30N 40°39' W 074°07'2 3.1
2018-Jul-14 11:00N 40°40' W 074°08'1 2.2
2018-Jul-14 10:31N 40°41' W 074°09'0 0.7
2018-Jul-14 10:00N 40°41' W 074°09'0 0.0
2018-Jul-14 09:30N 40°41' W 074°09'0 0.0
2018-Jul-14 09:00N 40°41' W 074°09'0 0.0
2018-Jul-14 08:30N 40°41' W 074°09'0 0.0
2018-Jul-14 08:00N 40°41' W 074°09'0 0.0
2018-Jul-14 07:30N 40°41' W 074°09'0 0.0
2018-Jul-14 07:00N 40°41' W 074°09'0 0.0
2018-Jul-14 06:30N 40°41' W 074°09'0 0.0
2018-Jul-14 06:00N 40°41' W 074°09'0 0.0
2018-Jul-14 05:30N 40°41' W 074°09'0 0.0
2018-Jul-14 05:00N 40°41' W 074°09'0 0.0
2018-Jul-14 04:30N 40°41' W 074°09'0 0.0
2018-Jul-14 04:00N 40°41' W 074°09'0 0.0
2018-Jul-14 03:30N 40°41' W 074°09'0 0.0
2018-Jul-14 03:00N 40°41' W 074°09'0 0.0
2018-Jul-14 02:30N 40°41' W 074°09'0 0.0
2018-Jul-14 02:00N 40°41' W 074°09'0 0.0
2018-Jul-14 01:21N 40°41' W 074°09'0 0.0
2018-Jul-14 01:00N 40°41' W 074°09'0 0.0
2018-Jul-14 00:30N 40°41' W 074°09'0 0.0
2018-Jul-14 00:00N 40°41' W 074°09'0 0.0
2018-Jul-13 23:27N 40°41' W 074°09'0 0.0
2018-Jul-13 23:00N 40°41' W 074°09'0 0.0
2018-Jul-13 22:30N 40°41' W 074°09'0 0.0
2018-Jul-13 22:00N 40°41' W 074°09'0 0.0
2018-Jul-13 21:27N 40°41' W 074°09'0 0.0
2018-Jul-13 21:00N 40°41' W 074°09'0 0.0
2018-Jul-13 20:27N 40°41' W 074°09'0 0.0
2018-Jul-13 20:00N 40°41' W 074°09'0 0.0
2018-Jul-13 19:30N 40°41' W 074°09'0 0.0
2018-Jul-13 19:00N 40°41' W 074°09'0 0.0
2018-Jul-13 18:30N 40°41' W 074°09'0 0.0
2018-Jul-13 18:00N 40°41' W 074°09'0 0.0
2018-Jul-13 17:30N 40°41' W 074°09'0 0.0
2018-Jul-13 17:00N 40°41' W 074°09'0 0.0
2018-Jul-13 16:21N 40°41' W 074°09'0 0.0
2018-Jul-13 16:00N 40°41' W 074°09'0 0.0
2018-Jul-13 15:30N 40°41' W 074°09'0 0.0
2018-Jul-13 14:57N 40°41' W 074°09'0 0.0
2018-Jul-13 14:15N 40°41' W 074°09'0 0.0
2018-Jul-13 13:30N 40°41' W 074°09'0 0.0
2018-Jul-13 13:00N 40°41' W 074°09'0 0.0
2018-Jul-13 12:30N 40°41' W 074°09'0 0.0
2018-Jul-13 12:00N 40°41' W 074°09'0 0.0
2018-Jul-13 11:30N 40°41' W 074°09'0 0.6
2018-Jul-13 11:00N 40°41' W 074°09'2 4.8
2018-Jul-13 10:30N 40°39' W 074°09'4 7.1
2018-Jul-13 10:00N 40°39' W 074°04'4 7.6
2018-Jul-13 09:30N 40°36' W 074°02'5 9.0
2018-Jul-13 09:00N 40°31' W 073°60'713.5
2018-Jul-13 08:30N 40°28' W 073°52'4 8.9
2018-Jul-13 08:00N 40°26' W 073°47'714.4
2018-Jul-13 07:30N 40°19' W 073°46'815.1
2018-Jul-13 07:01N 40°12' W 073°46'1122.0
2018-Jul-13 06:30N 40°01' W 073°44'1122.0
2018-Jul-13 06:00N 39°50' W 073°43'1121.9
2018-Jul-13 05:31N 39°39' W 073°44'1122.0
2018-Jul-13 05:00N 39°28' W 073°46'1122.0
2018-Jul-13 04:30N 39°17' W 073°48'1122.0
2018-Jul-13 04:00N 39°06' W 073°50'1122.1
2018-Jul-13 03:30N 38°55' W 073°53'1121.8
2018-Jul-13 03:00N 38°45' W 073°55'1121.7
2018-Jul-13 02:30N 38°34' W 073°57'1121.9
2018-Jul-13 02:01N 38°23' W 073°59'1121.9
2018-Jul-13 01:31N 38°12' W 074°02'1121.5
2018-Jul-13 01:01N 38°02' W 074°04'1121.8
2018-Jul-13 00:30N 37°51' W 074°07'1121.7
2018-Jul-13 00:00N 37°40' W 074°09'11714.5
2018-Jul-13 00:00N 37°30' W 074°06'3 7.0 070 / 201020.6 5.4 24.020.225.9
2018-Jul-12 23:30N 37°30' W 074°10'1121.5
2018-Jul-12 23:01N 37°19' W 074°12'1121.2
2018-Jul-12 22:30N 37°08' W 074°13'7721.8
2018-Jul-12 19:00N 35°54' W 074°36'16924.2 070 / 121018.710.8 26.019.926.0
2018-Jul-12 12:00N 33°30' W 076°24'12020.0 230 / 301018.110.8 27.022.629.8
2018-Jul-12 06:00N 32°18' W 078°18'8142.8 260 / 221017.527.0 27.021.029.0
2018-Jul-12 05:56N 32°19' W 078°28'1023.9
2018-Jul-12 05:31N 32°14' W 078°38'1323.9
2018-Jul-12 04:59N 32°06' W 078°50'1122.7
2018-Jul-12 04:30N 32°01' W 079°01'1122.2
2018-Jul-12 04:00N 31°59' W 079°14'1020.5
2018-Jul-12 03:31N 31°58' W 079°26'1020.2
2018-Jul-12 03:00N 31°58' W 079°38'1020.7
2018-Jul-12 02:30N 31°57' W 079°50'1121.0
2018-Jul-12 02:00N 31°57' W 080°02'1121.2
2018-Jul-12 01:30N 31°56' W 080°15'1121.1
2018-Jul-12 00:58N 31°55' W 080°28'1020.0
2018-Jul-12 00:29N 31°57' W 080°39'611.5
2018-Jul-12 00:00N 31°59' W 080°45'714.2
2018-Jul-11 23:31N 32°02' W 080°53'5 9.1
2018-Jul-11 23:00N 32°04' W 080°58'4 8.3
2018-Jul-11 22:31N 32°05' W 081°02'3 6.8
2018-Jul-11 22:00N 32°06' W 081°06'2 4.4
2018-Jul-11 21:30N 32°07' W 081°08'0 0.0
2018-Jul-11 21:00N 32°07' W 081°08'0 0.0
2018-Jul-11 20:30N 32°07' W 081°08'0 0.0
2018-Jul-11 20:00N 32°07' W 081°08'0 0.0
2018-Jul-11 19:30N 32°07' W 081°08'0 0.0
2018-Jul-11 19:00N 32°07' W 081°08'0 0.0
2018-Jul-11 18:30N 32°07' W 081°08'0 0.0
2018-Jul-11 18:00N 32°07' W 081°08'0 0.0
2018-Jul-11 17:24N 32°07' W 081°08'0 0.0
2018-Jul-11 17:00N 32°07' W 081°08'0 0.0
2018-Jul-11 16:24N 32°07' W 081°08'0 0.0
2018-Jul-11 16:00N 32°07' W 081°08'0 0.0
2018-Jul-11 15:30N 32°07' W 081°08'0 0.0
2018-Jul-11 15:00N 32°07' W 081°08'0 0.0
2018-Jul-11 14:24N 32°07' W 081°08'0 0.0
2018-Jul-11 13:48N 32°07' W 081°08'0 0.0
2018-Jul-11 13:30N 32°07' W 081°08'0 0.0
2018-Jul-11 13:00N 32°07' W 081°08'0 0.0
2018-Jul-11 12:30N 32°07' W 081°08'0 0.0
2018-Jul-11 12:00N 32°07' W 081°08'0 0.0
2018-Jul-11 11:30N 32°07' W 081°08'0 0.0
2018-Jul-11 11:00N 32°07' W 081°08'0 0.0
2018-Jul-11 10:19N 32°07' W 081°08'0 1.2
2018-Jul-11 10:00N 32°08' W 081°08'2 3.3
2018-Jul-11 09:30N 32°06' W 081°07'4 6.7
2018-Jul-11 08:59N 32°05' W 081°03'3 7.0
2018-Jul-11 08:30N 32°06' W 080°60'5 9.9
2018-Jul-11 08:00N 32°02' W 080°55'713.0
2018-Jul-11 07:30N 32°00' W 080°48'815.7
2018-Jul-11 07:01N 31°57' W 080°40'815.2
2018-Jul-11 06:30N 31°57' W 080°31'815.6
2018-Jul-11 05:58N 31°59' W 080°21'11519.2
2018-Jul-11 00:00N 32°48' W 078°18'11218.6 290 / 51014.710.8 28.016.928.3
2018-Jul-10 18:00N 34°00' W 076°36'5620.1 330 / 261015.210.8 27.011.428.7
2018-Jul-10 15:12N 34°40' W 075°48'626.3
2018-Jul-10 15:00N 34°42' W 075°42'281.3 010 / 251016.110.8 24.019.428.2
2018-Jul-10 14:58N 34°43' W 075°44'919.3
2018-Jul-10 14:31N 34°49' W 075°37'1122.2
2018-Jul-10 14:01N 34°56' W 075°27'1323.2
2018-Jul-10 13:26N 35°06' W 075°14'2021.9
2018-Jul-10 12:30N 35°24' W 075°04'713.5
2018-Jul-10 12:00N 35°30' W 075°00'3126.5 360 / 191015.910.8 23.019.924.9
2018-Jul-10 10:48N 36°01' W 074°53'2421.6
2018-Jul-10 09:42N 36°20' W 075°11'421.6
2018-Jul-10 09:30N 36°23' W 075°14'1521.8
2018-Jul-10 08:49N 36°36' W 075°24'821.2
2018-Jul-10 08:28N 36°42' W 075°29'4 9.4
2018-Jul-10 08:00N 36°45' W 075°33'510.8
2018-Jul-10 07:30N 36°47' W 075°39'917.2
2018-Jul-10 07:00N 36°50' W 075°49'1019.5
2018-Jul-10 06:30N 36°56' W 075°59'713.5
2018-Jul-10 06:00N 36°58' W 076°07'916.9
2018-Jul-10 05:28N 36°60' W 076°18'510.2
2018-Jul-10 04:59N 36°55' W 076°20'4 7.6
2018-Jul-10 04:30N 36°52' W 076°19'0 0.9
2018-Jul-10 03:59N 36°51' W 076°20'0 0.0
2018-Jul-10 03:23N 36°51' W 076°20'0 0.0
2018-Jul-10 02:47N 36°51' W 076°20'0 0.0
2018-Jul-10 02:17N 36°51' W 076°20'0 0.0
2018-Jul-10 01:59N 36°51' W 076°20'0 0.0
2018-Jul-10 01:29N 36°51' W 076°20'0 0.0
2018-Jul-10 00:59N 36°51' W 076°20'0 0.0
2018-Jul-10 00:26N 36°51' W 076°20'0 0.0
2018-Jul-09 23:50N 36°51' W 076°20'0 0.0
2018-Jul-09 23:29N 36°51' W 076°20'0 0.0
2018-Jul-09 22:59N 36°51' W 076°20'0 0.0
2018-Jul-09 20:47N 36°51' W 076°20'0 0.0
2018-Jul-09 19:41N 36°51' W 076°20'0 0.0
2018-Jul-09 19:29N 36°51' W 076°20'0 0.0
2018-Jul-09 18:59N 36°51' W 076°20'0 0.0
2018-Jul-09 18:29N 36°51' W 076°20'0 0.0
2018-Jul-09 17:59N 36°51' W 076°20'0 0.0
2018-Jul-09 17:26N 36°51' W 076°20'0 0.0
2018-Jul-09 16:50N 36°51' W 076°20'0 0.0
2018-Jul-09 16:26N 36°51' W 076°20'0 0.0
2018-Jul-09 15:59N 36°51' W 076°20'0 0.0
2018-Jul-09 15:29N 36°51' W 076°20'0 0.0
2018-Jul-09 14:32N 36°51' W 076°20'0 0.0
2018-Jul-09 14:29N 36°51' W 076°20'0 0.0
2018-Jul-09 13:59N 36°51' W 076°20'0 0.0
2018-Jul-09 13:23N 36°51' W 076°20'0 0.0
2018-Jul-09 12:59N 36°51' W 076°20'0 0.0
2018-Jul-09 12:29N 36°51' W 076°20'0 0.0
2018-Jul-09 11:59N 36°51' W 076°20'0 0.0
2018-Jul-09 11:29N 36°51' W 076°20'0 0.0
2018-Jul-09 10:59N 36°51' W 076°20'0 0.0
2018-Jul-09 10:29N 36°51' W 076°20'0 0.0
2018-Jul-09 09:59N 36°51' W 076°20'0 0.0
2018-Jul-09 09:29N 36°51' W 076°20'0 0.0
2018-Jul-09 08:59N 36°51' W 076°20'0 0.0
2018-Jul-09 08:29N 36°51' W 076°20'0 0.0
2018-Jul-09 08:00N 36°51' W 076°20'0 0.9
2018-Jul-09 07:30N 36°52' W 076°19'3 6.4
2018-Jul-09 07:00N 36°55' W 076°20'1110.1
2018-Jul-09 05:54N 36°59' W 076°07'6 8.4
2018-Jul-09 05:11N 36°58' W 075°60'718.4
2018-Jul-09 04:50N 37°03' W 076°05'618.7
2018-Jul-09 04:30N 37°09' W 076°09'1418.1
2018-Jul-09 03:44N 37°22' W 076°05'417.8
2018-Jul-09 03:30N 37°26' W 076°05'817.0
2018-Jul-09 03:00N 37°34' W 076°03'917.3
2018-Jul-09 02:30N 37°41' W 076°10'919.0
2018-Jul-09 02:00N 37°51' W 076°10'1018.3
2018-Jul-09 01:28N 38°00' W 076°12'919.6
2018-Jul-09 01:00N 38°09' W 076°14'3619.4
2018-Jul-08 23:08N 38°44' W 076°26'320.2
2018-Jul-08 23:00N 38°47' W 076°25'1020.5
2018-Jul-08 22:30N 38°57' W 076°23'816.2
2018-Jul-08 22:01N 39°05' W 076°24'612.9
2018-Jul-08 21:30N 39°11' W 076°27'5 9.6
2018-Jul-08 21:00N 39°13' W 076°32'2 3.0
2018-Jul-08 20:27N 39°15' W 076°33'0 0.5
2018-Jul-08 20:00N 39°15' W 076°33'0 0.0
2018-Jul-08 19:30N 39°15' W 076°33'0 0.0
2018-Jul-08 19:00N 39°15' W 076°33'0 0.0
2018-Jul-08 18:30N 39°15' W 076°33'0 0.0
2018-Jul-08 18:00N 39°15' W 076°33'0 0.0
2018-Jul-08 17:30N 39°15' W 076°33'0 0.0
2018-Jul-08 17:00N 39°15' W 076°33'0 0.0
2018-Jul-08 16:30N 39°15' W 076°33'0 0.0
2018-Jul-08 16:00N 39°15' W 076°33'0 0.0
2018-Jul-08 15:30N 39°15' W 076°33'0 0.0
2018-Jul-08 15:00N 39°15' W 076°33'0 0.0
2018-Jul-08 14:30N 39°15' W 076°33'0 0.0
2018-Jul-08 14:00N 39°15' W 076°33'0 0.0
2018-Jul-08 13:30N 39°15' W 076°33'0 0.0
2018-Jul-08 13:00N 39°15' W 076°33'0 0.0
2018-Jul-08 12:30N 39°15' W 076°33'0 0.0
2018-Jul-08 12:00N 39°15' W 076°33'0 0.0
2018-Jul-08 11:30N 39°15' W 076°33'0 0.0
2018-Jul-08 11:00N 39°15' W 076°33'0 0.0
2018-Jul-08 10:30N 39°15' W 076°33'0 0.0
2018-Jul-08 10:00N 39°15' W 076°33'0 0.0
2018-Jul-08 09:30N 39°15' W 076°33'0 0.0
2018-Jul-08 09:00N 39°15' W 076°33'0 0.0
2018-Jul-08 08:30N 39°15' W 076°33'0 0.0
2018-Jul-08 08:00N 39°15' W 076°33'0 0.0
2018-Jul-08 07:30N 39°15' W 076°33'0 0.0
2018-Jul-08 07:00N 39°15' W 076°33'0 0.0
2018-Jul-08 06:30N 39°15' W 076°33'0 0.0
2018-Jul-08 06:00N 39°15' W 076°33'0 0.0
2018-Jul-08 05:30N 39°15' W 076°33'0 0.0
2018-Jul-08 05:00N 39°15' W 076°33'0 0.0
2018-Jul-08 04:30N 39°15' W 076°33'0 0.0
2018-Jul-08 04:00N 39°15' W 076°33'0 0.0
2018-Jul-08 03:30N 39°15' W 076°33'0 0.0
2018-Jul-08 03:00N 39°15' W 076°33'0 0.0
2018-Jul-08 02:30N 39°15' W 076°33'0 0.0
2018-Jul-08 02:00N 39°15' W 076°33'0 0.0
2018-Jul-08 01:30N 39°15' W 076°33'0 0.0
2018-Jul-08 01:00N 39°15' W 076°33'0 0.0
2018-Jul-08 00:30N 39°15' W 076°33'0 0.0
2018-Jul-07 23:57N 39°15' W 076°33'0 0.0
2018-Jul-07 23:27N 39°15' W 076°33'0 0.0
2018-Jul-07 23:00N 39°15' W 076°33'0 0.0
2018-Jul-07 22:30N 39°15' W 076°33'0 0.0
2018-Jul-07 21:39N 39°15' W 076°33'0 0.0
2018-Jul-07 21:30N 39°15' W 076°33'0 0.0
2018-Jul-07 20:57N 39°15' W 076°33'0 0.0
2018-Jul-07 20:27N 39°15' W 076°33'0 0.0
2018-Jul-07 20:00N 39°15' W 076°33'0 0.0
2018-Jul-07 19:30N 39°15' W 076°33'0 0.0
2018-Jul-07 19:00N 39°15' W 076°33'0 0.0
2018-Jul-07 18:30N 39°15' W 076°33'0 0.0
2018-Jul-07 18:00N 39°15' W 076°33'0 0.0
2018-Jul-07 17:30N 39°15' W 076°33'0 0.0
2018-Jul-07 17:00N 39°15' W 076°33'0 0.0
2018-Jul-07 16:30N 39°15' W 076°33'0 0.0
2018-Jul-07 16:00N 39°15' W 076°33'0 0.0
2018-Jul-07 15:30N 39°15' W 076°33'0 0.0
2018-Jul-07 15:00N 39°15' W 076°33'0 0.0
2018-Jul-07 14:30N 39°15' W 076°33'0 0.0
2018-Jul-07 14:00N 39°15' W 076°33'0 0.0
2018-Jul-07 13:30N 39°15' W 076°33'0 0.0
2018-Jul-07 13:00N 39°15' W 076°33'0 0.0
2018-Jul-07 12:30N 39°15' W 076°33'0 0.0
2018-Jul-07 12:00N 39°15' W 076°33'0 0.0
2018-Jul-07 11:30N 39°15' W 076°33'0 0.0
2018-Jul-07 11:00N 39°15' W 076°33'0 0.0
2018-Jul-07 10:30N 39°15' W 076°33'0 0.0
2018-Jul-07 10:00N 39°15' W 076°33'0 0.0
2018-Jul-07 09:30N 39°15' W 076°33'0 0.0
2018-Jul-07 09:00N 39°15' W 076°33'0 0.0
2018-Jul-07 08:30N 39°15' W 076°33'0 0.0
2018-Jul-07 08:00N 39°15' W 076°33'0 0.0
2018-Jul-07 07:30N 39°15' W 076°33'0 0.0
2018-Jul-07 07:00N 39°15' W 076°33'0 0.0
2018-Jul-07 06:30N 39°15' W 076°33'0 0.0
2018-Jul-07 06:00N 39°15' W 076°33'0 0.0
2018-Jul-07 05:30N 39°15' W 076°33'0 0.0
2018-Jul-07 05:00N 39°15' W 076°33'0 0.0
2018-Jul-07 04:30N 39°15' W 076°33'0 0.0
2018-Jul-07 04:00N 39°15' W 076°33'0 0.0
2018-Jul-07 03:30N 39°15' W 076°33'0 0.0
2018-Jul-07 03:00N 39°15' W 076°33'0 0.0
2018-Jul-07 02:30N 39°15' W 076°33'0 0.0
2018-Jul-07 02:00N 39°15' W 076°33'0 0.0
2018-Jul-07 01:30N 39°15' W 076°33'0 0.0
2018-Jul-07 01:00N 39°15' W 076°33'0 0.0
2018-Jul-07 00:30N 39°15' W 076°33'0 0.0
2018-Jul-07 00:00N 39°15' W 076°33'  

Dump ship's entire track history